sensor_id;sensor_type;location;lat;lon;timestamp;pressure;altitude;pressure_sealevel;temperature;humidity
7966;BME280;4028;43.272;26.932;2023-03-07T00:01:40;98484.66;;;6.36;100.00
7966;BME280;4028;43.272;26.932;2023-03-07T00:04:06;98486.31;;;6.37;100.00
7966;BME280;4028;43.272;26.932;2023-03-07T00:06:31;98472.34;;;6.37;100.00
7966;BME280;4028;43.272;26.932;2023-03-07T00:08:58;98477.06;;;6.43;100.00
7966;BME280;4028;43.272;26.932;2023-03-07T00:11:25;98478.88;;;6.42;100.00
7966;BME280;4028;43.272;26.932;2023-03-07T00:13:51;98472.56;;;6.24;100.00
7966;BME280;4028;43.272;26.932;2023-03-07T00:16:19;98466.13;;;6.38;100.00
7966;BME280;4028;43.272;26.932;2023-03-07T00:18:45;98461.59;;;6.40;100.00
7966;BME280;4028;43.272;26.932;2023-03-07T00:21:13;98454.47;;;6.21;100.00
7966;BME280;4028;43.272;26.932;2023-03-07T00:23:41;98471.75;;;6.23;100.00
7966;BME280;4028;43.272;26.932;2023-03-07T00:26:11;98472.84;;;6.21;100.00
7966;BME280;4028;43.272;26.932;2023-03-07T00:28:37;98462.88;;;6.15;100.00
7966;BME280;4028;43.272;26.932;2023-03-07T00:31:05;98466.09;;;5.97;100.00
7966;BME280;4028;43.272;26.932;2023-03-07T00:33:31;98459.78;;;6.00;100.00
7966;BME280;4028;43.272;26.932;2023-03-07T00:35:59;98447.19;;;6.04;100.00
7966;BME280;4028;43.272;26.932;2023-03-07T00:38:25;98448.06;;;6.04;100.00
7966;BME280;4028;43.272;26.932;2023-03-07T00:40:59;98441.69;;;6.07;100.00
7966;BME280;4028;43.272;26.932;2023-03-07T00:43:26;98438.91;;;6.08;100.00
7966;BME280;4028;43.272;26.932;2023-03-07T00:45:52;98450.19;;;6.20;100.00
7966;BME280;4028;43.272;26.932;2023-03-07T00:48:17;98439.31;;;6.04;100.00
7966;BME280;4028;43.272;26.932;2023-03-07T00:50:43;98442.63;;;5.96;100.00
7966;BME280;4028;43.272;26.932;2023-03-07T00:53:09;98444.09;;;5.89;100.00
7966;BME280;4028;43.272;26.932;2023-03-07T00:55:35;98436.25;;;5.98;100.00
7966;BME280;4028;43.272;26.932;2023-03-07T00:58:00;98438.75;;;6.00;100.00
7966;BME280;4028;43.272;26.932;2023-03-07T01:00:25;98443.13;;;5.90;100.00
7966;BME280;4028;43.272;26.932;2023-03-07T01:02:51;98436.69;;;6.04;100.00
7966;BME280;4028;43.272;26.932;2023-03-07T01:05:16;98435.78;;;5.84;100.00
7966;BME280;4028;43.272;26.932;2023-03-07T01:07:42;98425.94;;;5.86;100.00
7966;BME280;4028;43.272;26.932;2023-03-07T01:10:08;98425.81;;;5.87;100.00
7966;BME280;4028;43.272;26.932;2023-03-07T01:12:34;98420.63;;;5.97;100.00
7966;BME280;4028;43.272;26.932;2023-03-07T01:14:59;98410.44;;;5.83;100.00
7966;BME280;4028;43.272;26.932;2023-03-07T01:17:25;98407.50;;;5.97;100.00
7966;BME280;4028;43.272;26.932;2023-03-07T01:19:51;98412.75;;;5.97;100.00
7966;BME280;4028;43.272;26.932;2023-03-07T01:22:16;98411.13;;;5.75;100.00
7966;BME280;4028;43.272;26.932;2023-03-07T01:24:42;98411.91;;;5.66;100.00
7966;BME280;4028;43.272;26.932;2023-03-07T01:27:07;98392.34;;;5.49;100.00
7966;BME280;4028;43.272;26.932;2023-03-07T01:29:32;98405.53;;;5.59;100.00
7966;BME280;4028;43.272;26.932;2023-03-07T01:31:58;98393.47;;;5.56;100.00
7966;BME280;4028;43.272;26.932;2023-03-07T01:34:23;98400.47;;;5.77;100.00
7966;BME280;4028;43.272;26.932;2023-03-07T01:36:49;98395.75;;;5.70;100.00
7966;BME280;4028;43.272;26.932;2023-03-07T01:39:15;98400.03;;;5.71;100.00
7966;BME280;4028;43.272;26.932;2023-03-07T01:41:42;98400.97;;;5.61;100.00
7966;BME280;4028;43.272;26.932;2023-03-07T01:44:15;98398.03;;;5.54;100.00
7966;BME280;4028;43.272;26.932;2023-03-07T01:51:41;98392.91;;;5.53;100.00
7966;BME280;4028;43.272;26.932;2023-03-07T01:54:10;98381.84;;;5.49;100.00
7966;BME280;4028;43.272;26.932;2023-03-07T01:56:37;98377.78;;;5.66;100.00
7966;BME280;4028;43.272;26.932;2023-03-07T01:59:04;98369.19;;;5.54;100.00
7966;BME280;4028;43.272;26.932;2023-03-07T02:01:30;98381.41;;;5.44;100.00
7966;BME280;4028;43.272;26.932;2023-03-07T02:04:00;98349.13;;;5.22;100.00
7966;BME280;4028;43.272;26.932;2023-03-07T02:06:27;98385.38;;;5.38;100.00
7966;BME280;4028;43.272;26.932;2023-03-07T02:08:55;98389.66;;;5.39;100.00
7966;BME280;4028;43.272;26.932;2023-03-07T02:11:21;98365.03;;;5.31;100.00
7966;BME280;4028;43.272;26.932;2023-03-07T02:13:47;98374.22;;;5.46;100.00
7966;BME280;4028;43.272;26.932;2023-03-07T02:16:12;98378.69;;;5.55;100.00
7966;BME280;4028;43.272;26.932;2023-03-07T02:18:44;98369.81;;;5.46;100.00
7966;BME280;4028;43.272;26.932;2023-03-07T02:26:41;98380.16;;;5.38;100.00
7966;BME280;4028;43.272;26.932;2023-03-07T02:29:08;98382.03;;;5.36;100.00
7966;BME280;4028;43.272;26.932;2023-03-07T02:31:33;98371.16;;;5.41;100.00
7966;BME280;4028;43.272;26.932;2023-03-07T02:33:59;98375.84;;;5.37;100.00
7966;BME280;4028;43.272;26.932;2023-03-07T02:36:29;98360.38;;;5.13;100.00
7966;BME280;4028;43.272;26.932;2023-03-07T02:38:56;98379.66;;;5.03;100.00
7966;BME280;4028;43.272;26.932;2023-03-07T02:41:25;98375.59;;;4.99;100.00
7966;BME280;4028;43.272;26.932;2023-03-07T02:43:52;98371.06;;;5.01;100.00
7966;BME280;4028;43.272;26.932;2023-03-07T02:46:18;98363.00;;;5.13;100.00
7966;BME280;4028;43.272;26.932;2023-03-07T02:48:45;98360.56;;;5.21;100.00
7966;BME280;4028;43.272;26.932;2023-03-07T02:51:10;98358.34;;;5.17;100.00
7966;BME280;4028;43.272;26.932;2023-03-07T02:53:36;98353.84;;;5.29;100.00
7966;BME280;4028;43.272;26.932;2023-03-07T02:56:01;98351.91;;;5.31;100.00
7966;BME280;4028;43.272;26.932;2023-03-07T02:58:28;98354.41;;;5.11;100.00
7966;BME280;4028;43.272;26.932;2023-03-07T03:00:53;98365.44;;;5.05;100.00
7966;BME280;4028;43.272;26.932;2023-03-07T03:03:19;98368.88;;;5.06;100.00
7966;BME280;4028;43.272;26.932;2023-03-07T03:05:44;98359.50;;;5.03;100.00
7966;BME280;4028;43.272;26.932;2023-03-07T03:08:10;98363.31;;;4.99;100.00
7966;BME280;4028;43.272;26.932;2023-03-07T03:10:37;98355.16;;;4.92;100.00
7966;BME280;4028;43.272;26.932;2023-03-07T03:13:02;98359.56;;;4.92;100.00
7966;BME280;4028;43.272;26.932;2023-03-07T03:15:28;98363.09;;;5.02;100.00
7966;BME280;4028;43.272;26.932;2023-03-07T03:17:53;98368.19;;;5.04;100.00
7966;BME280;4028;43.272;26.932;2023-03-07T03:20:19;98355.22;;;5.02;100.00
7966;BME280;4028;43.272;26.932;2023-03-07T03:22:44;98354.63;;;4.99;100.00
7966;BME280;4028;43.272;26.932;2023-03-07T03:25:12;98353.22;;;4.94;100.00
7966;BME280;4028;43.272;26.932;2023-03-07T03:27:39;98350.53;;;4.85;100.00
7966;BME280;4028;43.272;26.932;2023-03-07T03:30:07;98346.47;;;4.92;100.00
7966;BME280;4028;43.272;26.932;2023-03-07T03:32:33;98350.28;;;4.88;100.00
7966;BME280;4028;43.272;26.932;2023-03-07T03:34:59;98338.59;;;4.71;100.00
7966;BME280;4028;43.272;26.932;2023-03-07T03:37:24;98344.88;;;4.68;100.00
7966;BME280;4028;43.272;26.932;2023-03-07T03:39:52;98337.03;;;4.68;100.00
7966;BME280;4028;43.272;26.932;2023-03-07T03:42:18;98335.00;;;4.72;100.00
7966;BME280;4028;43.272;26.932;2023-03-07T03:44:44;98337.25;;;4.98;100.00
7966;BME280;4028;43.272;26.932;2023-03-07T03:47:09;98342.59;;;4.96;100.00
7966;BME280;4028;43.272;26.932;2023-03-07T03:49:35;98340.94;;;4.95;100.00
7966;BME280;4028;43.272;26.932;2023-03-07T03:52:00;98339.53;;;4.91;100.00
7966;BME280;4028;43.272;26.932;2023-03-07T03:54:26;98345.59;;;4.70;100.00
7966;BME280;4028;43.272;26.932;2023-03-07T03:56:53;98341.13;;;4.61;100.00
7966;BME280;4028;43.272;26.932;2023-03-07T03:59:19;98344.81;;;4.59;100.00
7966;BME280;4028;43.272;26.932;2023-03-07T04:01:44;98346.81;;;4.66;100.00
7966;BME280;4028;43.272;26.932;2023-03-07T04:04:10;98344.50;;;4.73;100.00
7966;BME280;4028;43.272;26.932;2023-03-07T04:06:36;98344.13;;;4.78;100.00
7966;BME280;4028;43.272;26.932;2023-03-07T04:09:02;98350.06;;;4.80;100.00
7966;BME280;4028;43.272;26.932;2023-03-07T04:11:29;98341.53;;;4.78;100.00
7966;BME280;4028;43.272;26.932;2023-03-07T04:13:54;98347.44;;;4.80;100.00
7966;BME280;4028;43.272;26.932;2023-03-07T04:16:20;98350.63;;;4.62;100.00
7966;BME280;4028;43.272;26.932;2023-03-07T04:18:48;98351.16;;;4.56;100.00
7966;BME280;4028;43.272;26.932;2023-03-07T04:21:15;98332.28;;;4.41;100.00
7966;BME280;4028;43.272;26.932;2023-03-07T04:23:41;98347.69;;;4.56;100.00
7966;BME280;4028;43.272;26.932;2023-03-07T04:26:07;98355.28;;;4.59;100.00
7966;BME280;4028;43.272;26.932;2023-03-07T04:28:38;98353.03;;;4.54;100.00
7966;BME280;4028;43.272;26.932;2023-03-07T04:31:17;98352.47;;;4.51;100.00
7966;BME280;4028;43.272;26.932;2023-03-07T04:33:44;98362.66;;;4.65;100.00
7966;BME280;4028;43.272;26.932;2023-03-07T04:36:10;98362.72;;;4.75;100.00
7966;BME280;4028;43.272;26.932;2023-03-07T04:38:36;98361.19;;;4.72;100.00
7966;BME280;4028;43.272;26.932;2023-03-07T04:41:04;98364.53;;;4.74;100.00
7966;BME280;4028;43.272;26.932;2023-03-07T04:43:30;98370.97;;;4.70;100.00
7966;BME280;4028;43.272;26.932;2023-03-07T04:45:55;98372.50;;;4.73;100.00
7966;BME280;4028;43.272;26.932;2023-03-07T04:48:21;98366.09;;;4.65;100.00
7966;BME280;4028;43.272;26.932;2023-03-07T04:50:50;98363.06;;;4.81;100.00
7966;BME280;4028;43.272;26.932;2023-03-07T04:53:20;98361.91;;;4.74;100.00
7966;BME280;4028;43.272;26.932;2023-03-07T04:55:45;98362.34;;;4.79;100.00
7966;BME280;4028;43.272;26.932;2023-03-07T04:58:12;98368.50;;;4.89;100.00
7966;BME280;4028;43.272;26.932;2023-03-07T05:00:44;98372.66;;;4.92;100.00
7966;BME280;4028;43.272;26.932;2023-03-07T05:03:11;98374.84;;;4.87;100.00
7966;BME280;4028;43.272;26.932;2023-03-07T05:05:37;98378.69;;;5.04;100.00
7966;BME280;4028;43.272;26.932;2023-03-07T05:08:04;98376.19;;;5.02;100.00
7966;BME280;4028;43.272;26.932;2023-03-07T05:10:31;98372.16;;;4.98;100.00
7966;BME280;4028;43.272;26.932;2023-03-07T05:12:57;98374.47;;;5.12;100.00
7966;BME280;4028;43.272;26.932;2023-03-07T05:15:22;98374.19;;;5.15;100.00
7966;BME280;4028;43.272;26.932;2023-03-07T05:17:48;98369.28;;;5.22;100.00
7966;BME280;4028;43.272;26.932;2023-03-07T05:20:13;98375.34;;;5.22;100.00
7966;BME280;4028;43.272;26.932;2023-03-07T05:22:39;98380.31;;;5.26;100.00
7966;BME280;4028;43.272;26.932;2023-03-07T05:25:05;98379.41;;;5.36;100.00
7966;BME280;4028;43.272;26.932;2023-03-07T05:27:31;98376.41;;;5.41;100.00
7966;BME280;4028;43.272;26.932;2023-03-07T05:29:56;98373.69;;;5.52;100.00
7966;BME280;4028;43.272;26.932;2023-03-07T05:32:22;98375.53;;;5.61;100.00
7966;BME280;4028;43.272;26.932;2023-03-07T05:34:47;98374.63;;;5.72;100.00
7966;BME280;4028;43.272;26.932;2023-03-07T05:37:13;98369.50;;;5.70;100.00
7966;BME280;4028;43.272;26.932;2023-03-07T05:39:38;98369.81;;;5.77;100.00
7966;BME280;4028;43.272;26.932;2023-03-07T05:42:04;98366.84;;;5.91;100.00
7966;BME280;4028;43.272;26.932;2023-03-07T05:44:30;98379.13;;;5.91;100.00
7966;BME280;4028;43.272;26.932;2023-03-07T05:46:55;98382.22;;;5.96;100.00
7966;BME280;4028;43.272;26.932;2023-03-07T05:49:21;98383.47;;;6.02;100.00
7966;BME280;4028;43.272;26.932;2023-03-07T05:51:46;98390.13;;;6.06;100.00
7966;BME280;4028;43.272;26.932;2023-03-07T05:54:12;98384.19;;;6.13;100.00
7966;BME280;4028;43.272;26.932;2023-03-07T05:56:37;98380.09;;;6.20;100.00
7966;BME280;4028;43.272;26.932;2023-03-07T05:59:03;98372.84;;;6.13;100.00
7966;BME280;4028;43.272;26.932;2023-03-07T06:01:32;98386.72;;;6.34;100.00
7966;BME280;4028;43.272;26.932;2023-03-07T06:03:57;98388.53;;;6.43;100.00
7966;BME280;4028;43.272;26.932;2023-03-07T06:06:23;98388.31;;;6.66;100.00
7966;BME280;4028;43.272;26.932;2023-03-07T06:08:48;98387.47;;;6.85;100.00
7966;BME280;4028;43.272;26.932;2023-03-07T06:11:14;98391.75;;;7.05;100.00
7966;BME280;4028;43.272;26.932;2023-03-07T06:13:40;98397.53;;;7.38;100.00
7966;BME280;4028;43.272;26.932;2023-03-07T06:16:05;98403.63;;;7.48;100.00
7966;BME280;4028;43.272;26.932;2023-03-07T06:18:31;98398.03;;;7.61;100.00
7966;BME280;4028;43.272;26.932;2023-03-07T06:20:58;98396.88;;;7.73;100.00
7966;BME280;4028;43.272;26.932;2023-03-07T06:23:25;98393.94;;;7.76;100.00
7966;BME280;4028;43.272;26.932;2023-03-07T06:25:51;98399.63;;;7.81;100.00
7966;BME280;4028;43.272;26.932;2023-03-07T06:28:16;98401.84;;;7.76;100.00
7966;BME280;4028;43.272;26.932;2023-03-07T06:30:42;98410.06;;;7.73;100.00
7966;BME280;4028;43.272;26.932;2023-03-07T06:33:07;98410.66;;;7.94;100.00
7966;BME280;4028;43.272;26.932;2023-03-07T06:35:33;98411.31;;;8.06;100.00
7966;BME280;4028;43.272;26.932;2023-03-07T06:37:58;98416.75;;;8.22;100.00
7966;BME280;4028;43.272;26.932;2023-03-07T06:40:24;98420.16;;;8.42;100.00
7966;BME280;4028;43.272;26.932;2023-03-07T06:42:51;98412.88;;;8.90;100.00
7966;BME280;4028;43.272;26.932;2023-03-07T06:45:17;98410.13;;;9.35;100.00
7966;BME280;4028;43.272;26.932;2023-03-07T06:47:42;98417.44;;;9.67;100.00
7966;BME280;4028;43.272;26.932;2023-03-07T06:50:08;98421.38;;;9.89;100.00
7966;BME280;4028;43.272;26.932;2023-03-07T06:52:34;98408.19;;;9.97;100.00
7966;BME280;4028;43.272;26.932;2023-03-07T06:54:59;98418.22;;;10.20;100.00
7966;BME280;4028;43.272;26.932;2023-03-07T06:57:25;98413.34;;;11.16;100.00
7966;BME280;4028;43.272;26.932;2023-03-07T06:59:51;98411.94;;;12.41;100.00
7966;BME280;4028;43.272;26.932;2023-03-07T07:02:16;98412.19;;;13.69;84.23
7966;BME280;4028;43.272;26.932;2023-03-07T07:04:41;98417.00;;;14.69;73.58
7966;BME280;4028;43.272;26.932;2023-03-07T07:07:07;98413.56;;;15.32;65.54
7966;BME280;4028;43.272;26.932;2023-03-07T07:09:33;98409.88;;;15.83;60.81
7966;BME280;4028;43.272;26.932;2023-03-07T07:11:58;98406.78;;;16.21;58.06
7966;BME280;4028;43.272;26.932;2023-03-07T07:14:24;98407.56;;;16.56;56.15
7966;BME280;4028;43.272;26.932;2023-03-07T07:16:49;98403.25;;;16.48;54.08
7966;BME280;4028;43.272;26.932;2023-03-07T07:19:15;98416.00;;;16.59;53.78
7966;BME280;4028;43.272;26.932;2023-03-07T07:21:41;98410.56;;;16.33;53.54
7966;BME280;4028;43.272;26.932;2023-03-07T07:24:06;98413.78;;;16.70;52.57
7966;BME280;4028;43.272;26.932;2023-03-07T07:26:34;98413.06;;;16.41;53.32
7966;BME280;4028;43.272;26.932;2023-03-07T07:28:59;98405.50;;;16.58;52.34
7966;BME280;4028;43.272;26.932;2023-03-07T07:31:25;98408.94;;;16.93;52.12
7966;BME280;4028;43.272;26.932;2023-03-07T07:33:50;98410.03;;;17.85;50.13
7966;BME280;4028;43.272;26.932;2023-03-07T07:36:16;98405.81;;;18.29;47.22
7966;BME280;4028;43.272;26.932;2023-03-07T07:38:41;98409.56;;;18.14;47.11
7966;BME280;4028;43.272;26.932;2023-03-07T07:41:07;98406.88;;;18.73;45.85
7966;BME280;4028;43.272;26.932;2023-03-07T07:43:32;98403.97;;;19.12;45.17
7966;BME280;4028;43.272;26.932;2023-03-07T07:45:58;98403.59;;;19.34;44.39
7966;BME280;4028;43.272;26.932;2023-03-07T07:48:23;98404.47;;;19.59;43.36
7966;BME280;4028;43.272;26.932;2023-03-07T07:50:49;98402.06;;;19.76;42.94
7966;BME280;4028;43.272;26.932;2023-03-07T07:53:14;98380.75;;;19.56;42.35
7966;BME280;4028;43.272;26.932;2023-03-07T07:55:43;98403.63;;;19.84;41.95
7966;BME280;4028;43.272;26.932;2023-03-07T07:58:09;98410.19;;;20.06;42.10
7966;BME280;4028;43.272;26.932;2023-03-07T08:00:34;98410.66;;;20.21;41.35
7966;BME280;4028;43.272;26.932;2023-03-07T08:03:00;98407.03;;;20.53;40.75
7966;BME280;4028;43.272;26.932;2023-03-07T08:05:26;98395.00;;;20.18;40.71
7966;BME280;4028;43.272;26.932;2023-03-07T08:07:51;98409.16;;;19.64;41.94
7966;BME280;4028;43.272;26.932;2023-03-07T08:10:17;98392.25;;;20.25;41.41
7966;BME280;4028;43.272;26.932;2023-03-07T08:12:44;98399.59;;;20.85;40.34
7966;BME280;4028;43.272;26.932;2023-03-07T08:15:13;98391.94;;;21.12;39.77
7966;BME280;4028;43.272;26.932;2023-03-07T08:17:41;98405.44;;;21.65;38.67
7966;BME280;4028;43.272;26.932;2023-03-07T08:20:07;98400.97;;;22.06;38.12
7966;BME280;4028;43.272;26.932;2023-03-07T08:22:37;98398.28;;;22.18;37.16
7966;BME280;4028;43.272;26.932;2023-03-07T08:25:04;98384.94;;;21.88;37.56
7966;BME280;4028;43.272;26.932;2023-03-07T08:27:29;98402.25;;;21.80;37.33
7966;BME280;4028;43.272;26.932;2023-03-07T08:29:55;98382.13;;;21.83;37.75
7966;BME280;4028;43.272;26.932;2023-03-07T08:32:21;98389.97;;;21.96;36.93
7966;BME280;4028;43.272;26.932;2023-03-07T08:34:47;98391.47;;;21.57;37.01
7966;BME280;4028;43.272;26.932;2023-03-07T08:37:12;98387.97;;;21.79;37.27
7966;BME280;4028;43.272;26.932;2023-03-07T08:39:38;98388.78;;;21.92;37.13
7966;BME280;4028;43.272;26.932;2023-03-07T08:42:03;98384.09;;;21.64;36.93
7966;BME280;4028;43.272;26.932;2023-03-07T08:44:28;98381.88;;;21.07;38.18
7966;BME280;4028;43.272;26.932;2023-03-07T08:46:54;98374.22;;;20.92;39.08
7966;BME280;4028;43.272;26.932;2023-03-07T08:49:19;98374.72;;;21.43;38.01
7966;BME280;4028;43.272;26.932;2023-03-07T08:51:48;98374.84;;;21.83;36.79
7966;BME280;4028;43.272;26.932;2023-03-07T08:54:14;98374.66;;;22.37;35.71
7966;BME280;4028;43.272;26.932;2023-03-07T08:56:39;98367.97;;;22.79;35.38
7966;BME280;4028;43.272;26.932;2023-03-07T08:59:05;98374.19;;;23.59;34.85
7966;BME280;4028;43.272;26.932;2023-03-07T09:01:30;98365.88;;;23.77;33.69
7966;BME280;4028;43.272;26.932;2023-03-07T09:03:56;98367.75;;;23.60;33.25
7966;BME280;4028;43.272;26.932;2023-03-07T09:06:21;98362.19;;;23.50;33.30
7966;BME280;4028;43.272;26.932;2023-03-07T09:08:48;98363.31;;;23.37;34.17
7966;BME280;4028;43.272;26.932;2023-03-07T09:11:15;98360.88;;;23.19;32.84
7966;BME280;4028;43.272;26.932;2023-03-07T09:13:41;98357.25;;;23.13;32.70
7966;BME280;4028;43.272;26.932;2023-03-07T09:16:07;98362.56;;;22.79;32.93
7966;BME280;4028;43.272;26.932;2023-03-07T09:18:33;98358.78;;;22.64;33.38
7966;BME280;4028;43.272;26.932;2023-03-07T09:21:00;98333.53;;;22.01;33.56
7966;BME280;4028;43.272;26.932;2023-03-07T09:23:26;98363.50;;;21.93;34.29
7966;BME280;4028;43.272;26.932;2023-03-07T09:25:51;98359.75;;;22.17;33.66
7966;BME280;4028;43.272;26.932;2023-03-07T09:28:17;98353.56;;;22.45;33.42
7966;BME280;4028;43.272;26.932;2023-03-07T09:30:42;98354.50;;;21.52;33.37
7966;BME280;4028;43.272;26.932;2023-03-07T09:33:08;98353.91;;;21.73;34.16
7966;BME280;4028;43.272;26.932;2023-03-07T09:35:33;98363.03;;;21.49;33.75
7966;BME280;4028;43.272;26.932;2023-03-07T09:37:59;98347.84;;;21.01;34.04
7966;BME280;4028;43.272;26.932;2023-03-07T09:40:26;98352.88;;;20.67;34.87
7966;BME280;4028;43.272;26.932;2023-03-07T09:51:40;98344.25;;;23.44;30.37
7966;BME280;4028;43.272;26.932;2023-03-07T09:54:13;98337.19;;;23.93;30.39
7966;BME280;4028;43.272;26.932;2023-03-07T09:56:56;98329.59;;;24.12;29.93
7966;BME280;4028;43.272;26.932;2023-03-07T10:02:04;98319.28;;;23.87;26.73
7966;BME280;4028;43.272;26.932;2023-03-07T10:07:08;98326.03;;;23.68;27.00
7966;BME280;4028;43.272;26.932;2023-03-07T10:09:37;98318.19;;;23.88;26.88
7966;BME280;4028;43.272;26.932;2023-03-07T10:20:02;98315.09;;;23.79;26.11
7966;BME280;4028;43.272;26.932;2023-03-07T10:27:46;98305.66;;;24.70;25.90
7966;BME280;4028;43.272;26.932;2023-03-07T10:30:16;98300.47;;;24.41;26.29
7966;BME280;4028;43.272;26.932;2023-03-07T10:32:54;98307.00;;;23.63;26.82
7966;BME280;4028;43.272;26.932;2023-03-07T10:35:35;98299.22;;;23.44;27.39
7966;BME280;4028;43.272;26.932;2023-03-07T10:38:12;98292.59;;;23.35;26.85
7966;BME280;4028;43.272;26.932;2023-03-07T10:41:16;98292.38;;;23.58;26.74
7966;BME280;4028;43.272;26.932;2023-03-07T10:43:45;98284.28;;;23.75;26.93
7966;BME280;4028;43.272;26.932;2023-03-07T10:46:17;98284.91;;;24.26;26.67
7966;BME280;4028;43.272;26.932;2023-03-07T10:48:48;98274.34;;;24.47;26.37
7966;BME280;4028;43.272;26.932;2023-03-07T10:53:40;98281.69;;;24.78;26.31
7966;BME280;4028;43.272;26.932;2023-03-07T10:56:14;98267.75;;;24.97;26.02
7966;BME280;4028;43.272;26.932;2023-03-07T10:59:02;98263.06;;;24.87;25.82
7966;BME280;4028;43.272;26.932;2023-03-07T11:01:29;98251.84;;;24.19;26.65
7966;BME280;4028;43.272;26.932;2023-03-07T11:04:06;98259.84;;;23.65;26.69
7966;BME280;4028;43.272;26.932;2023-03-07T11:06:50;98258.88;;;23.38;26.68
7966;BME280;4028;43.272;26.932;2023-03-07T11:09:30;98251.25;;;22.67;27.93
7966;BME280;4028;43.272;26.932;2023-03-07T11:14:53;98243.63;;;23.87;27.42
7966;BME280;4028;43.272;26.932;2023-03-07T11:22:48;98232.41;;;24.76;26.18
7966;BME280;4028;43.272;26.932;2023-03-07T11:25:23;98232.97;;;25.10;25.84
7966;BME280;4028;43.272;26.932;2023-03-07T11:27:55;98229.03;;;24.10;26.45
7966;BME280;4028;43.272;26.932;2023-03-07T11:38:13;98209.78;;;23.19;26.33
7966;BME280;4028;43.272;26.932;2023-03-07T11:41:14;98207.81;;;22.97;27.46
7966;BME280;4028;43.272;26.932;2023-03-07T11:46:35;98197.69;;;24.36;26.64
7966;BME280;4028;43.272;26.932;2023-03-07T11:52:24;98201.88;;;23.34;27.21
7966;BME280;4028;43.272;26.932;2023-03-07T11:55:20;98192.19;;;23.16;27.05
7966;BME280;4028;43.272;26.932;2023-03-07T12:00:47;98190.69;;;24.13;26.42
7966;BME280;4028;43.272;26.932;2023-03-07T12:06:04;98181.97;;;22.84;27.52
7966;BME280;4028;43.272;26.932;2023-03-07T12:11:58;98180.38;;;22.21;28.38
7966;BME280;4028;43.272;26.932;2023-03-07T12:23:08;98175.59;;;23.68;27.44
7966;BME280;4028;43.272;26.932;2023-03-07T12:25:39;98171.63;;;23.98;26.80
7966;BME280;4028;43.272;26.932;2023-03-07T12:28:27;98175.47;;;23.58;26.95
7966;BME280;4028;43.272;26.932;2023-03-07T12:31:06;98172.63;;;23.48;26.72
7966;BME280;4028;43.272;26.932;2023-03-07T12:33:55;98168.91;;;22.76;27.71
7966;BME280;4028;43.272;26.932;2023-03-07T12:36:51;98173.16;;;22.55;27.83
7966;BME280;4028;43.272;26.932;2023-03-07T12:42:27;98162.63;;;23.04;27.11
7966;BME280;4028;43.272;26.932;2023-03-07T12:45:08;98165.38;;;22.76;27.50
7966;BME280;4028;43.272;26.932;2023-03-07T12:52:53;98167.06;;;21.46;29.13
7966;BME280;4028;43.272;26.932;2023-03-07T12:55:54;98161.59;;;21.06;28.91
7966;BME280;4028;43.272;26.932;2023-03-07T12:58:36;98161.22;;;21.37;29.29
7966;BME280;4028;43.272;26.932;2023-03-07T13:01:20;98157.00;;;21.41;28.51
7966;BME280;4028;43.272;26.932;2023-03-07T13:06:22;98158.69;;;20.84;29.61
7966;BME280;4028;43.272;26.932;2023-03-07T13:08:54;98148.25;;;20.87;29.95
7966;BME280;4028;43.272;26.932;2023-03-07T13:11:25;98146.13;;;21.24;30.82
7966;BME280;4028;43.272;26.932;2023-03-07T13:16:43;98144.72;;;21.74;30.94
7966;BME280;4028;43.272;26.932;2023-03-07T13:19:42;98141.00;;;21.35;30.97
7966;BME280;4028;43.272;26.932;2023-03-07T13:24:40;98146.03;;;21.31;32.20
7966;BME280;4028;43.272;26.932;2023-03-07T13:27:41;98149.44;;;21.15;31.09
7966;BME280;4028;43.272;26.932;2023-03-07T13:59:02;98139.66;;;19.41;34.90
7966;BME280;4028;43.272;26.932;2023-03-07T14:01:36;98137.63;;;19.37;34.38
7966;BME280;4028;43.272;26.932;2023-03-07T14:09:24;98140.69;;;19.22;35.58
7966;BME280;4028;43.272;26.932;2023-03-07T14:20:41;98131.34;;;18.88;35.96
7966;BME280;4028;43.272;26.932;2023-03-07T14:26:10;98139.19;;;18.89;35.83
7966;BME280;4028;43.272;26.932;2023-03-07T14:28:49;98138.16;;;18.90;35.96
7966;BME280;4028;43.272;26.932;2023-03-07T14:31:25;98144.06;;;18.99;36.02
7966;BME280;4028;43.272;26.932;2023-03-07T14:33:51;98140.31;;;19.00;36.23
7966;BME280;4028;43.272;26.932;2023-03-07T14:36:20;98143.44;;;18.97;36.37
7966;BME280;4028;43.272;26.932;2023-03-07T14:38:47;98146.88;;;19.04;35.93
7966;BME280;4028;43.272;26.932;2023-03-07T14:41:27;98131.97;;;18.90;35.73
7966;BME280;4028;43.272;26.932;2023-03-07T14:51:56;98134.69;;;18.83;36.14
7966;BME280;4028;43.272;26.932;2023-03-07T14:54:25;98139.38;;;18.69;36.41
7966;BME280;4028;43.272;26.932;2023-03-07T14:56:54;98135.06;;;18.62;36.31
7966;BME280;4028;43.272;26.932;2023-03-07T14:59:19;98135.41;;;18.47;36.02
7966;BME280;4028;43.272;26.932;2023-03-07T15:01:47;98142.03;;;18.44;35.98
7966;BME280;4028;43.272;26.932;2023-03-07T15:06:52;98148.09;;;18.33;36.55
7966;BME280;4028;43.272;26.932;2023-03-07T15:09:18;98140.97;;;18.21;36.43
7966;BME280;4028;43.272;26.932;2023-03-07T15:14:42;98151.44;;;18.29;36.65
7966;BME280;4028;43.272;26.932;2023-03-07T15:17:15;98142.94;;;18.32;36.64
7966;BME280;4028;43.272;26.932;2023-03-07T15:19:43;98150.56;;;18.35;36.46
7966;BME280;4028;43.272;26.932;2023-03-07T15:22:18;98152.25;;;18.29;36.45
7966;BME280;4028;43.272;26.932;2023-03-07T15:24:49;98146.56;;;18.19;36.64
7966;BME280;4028;43.272;26.932;2023-03-07T15:27:24;98154.25;;;18.09;37.46
7966;BME280;4028;43.272;26.932;2023-03-07T15:29:50;98159.19;;;18.05;37.56
7966;BME280;4028;43.272;26.932;2023-03-07T15:32:37;98149.19;;;17.94;38.13
7966;BME280;4028;43.272;26.932;2023-03-07T15:37:53;98152.50;;;17.89;38.44
7966;BME280;4028;43.272;26.932;2023-03-07T15:43:00;98157.53;;;17.73;39.36
7966;BME280;4028;43.272;26.932;2023-03-07T15:45:40;98154.09;;;17.52;40.21
7966;BME280;4028;43.272;26.932;2023-03-07T15:48:24;98157.00;;;17.51;39.78
7966;BME280;4028;43.272;26.932;2023-03-07T15:50:58;98148.34;;;17.49;39.80
7966;BME280;4028;43.272;26.932;2023-03-07T15:53:30;98163.75;;;17.53;39.81
7966;BME280;4028;43.272;26.932;2023-03-07T15:56:07;98166.28;;;17.41;39.96
7966;BME280;4028;43.272;26.932;2023-03-07T15:58:46;98171.47;;;17.23;40.55